Time;durP1;ratioP1;P1;durP2;ratioP2;P2;SDS_P1;SDS_P2;PMS_P1;PMS_P2;Temp;Humidity;BMP_temperature;BMP_pressure;BME280_temperature;BME280_humidity;BME280_pressure;Samples;Min_cycle;Max_cycle;Signal;HPM_P1;HPM_P2
2022/04/26 03:37:05;;;;;;;;;7.75;7.75;;;;;20.47;34.91;101073.00;5078978;28;45878;-53
2022/04/26 03:39:34;;;;;;;;;8.50;8.50;;;;;20.45;34.47;101075.72;5078998;28;45329;-54
2022/04/26 03:42:02;;;;;;;;;12.25;10.50;;;;;20.46;34.69;101072.16;5078930;27;45513;-53
2022/04/26 03:44:28;;;;;;;;;8.75;8.75;;;;;20.46;34.85;101076.56;5079069;27;46536;-51
2022/04/26 03:46:53;;;;;;;;;7.75;7.00;;;;;20.45;34.76;101072.25;5079514;27;45598;-49
2022/04/26 03:49:19;;;;;;;;;9.25;9.25;;;;;20.46;35.07;101073.94;5078694;28;45340;-54
2022/04/26 03:51:45;;;;;;;;;9.25;8.25;;;;;20.44;34.66;101070.53;5079032;27;45447;-54
2022/04/26 03:54:10;;;;;;;;;13.25;8.75;;;;;20.46;34.56;101082.69;5078393;28;45427;-49
2022/04/26 03:56:36;;;;;;;;;7.00;6.25;;;;;20.46;35.14;101076.56;5078340;28;45489;-54
2022/04/26 03:59:01;;;;;;;;;11.00;11.00;;;;;20.46;35.21;101073.94;5078532;27;45315;-49
2022/04/26 04:01:26;;;;;;;;;11.75;8.25;;;;;20.45;35.20;101080.16;5079759;28;45278;-49
2022/04/26 04:03:51;;;;;;;;;10.00;10.00;;;;;20.45;34.74;101073.09;5078344;27;54410;-56
2022/04/26 04:06:17;;;;;;;;;6.75;6.75;;;;;20.45;34.64;101077.50;5078357;27;45698;-51
2022/04/26 04:08:42;;;;;;;;;9.25;8.00;;;;;20.44;35.20;101073.19;5078440;27;45243;-54
2022/04/26 04:11:07;;;;;;;;;8.00;7.67;;;;;20.45;34.95;101085.41;5078245;28;45324;-52
2022/04/26 04:13:33;;;;;;;;;12.00;9.25;;;;;20.45;35.13;101074.88;5077484;28;51560;-54
2022/04/26 04:15:58;;;;;;;;;10.00;8.75;;;;;20.44;35.13;101083.72;5077584;27;45248;-53
2022/04/26 04:21:08;;;;;;;;;10.50;9.25;;;;;20.45;34.83;101090.69;5078567;28;45211;-51
2022/04/26 04:23:38;;;;;;;;;10.50;8.75;;;;;20.44;35.15;101096.88;5078407;27;46162;-50
2022/04/26 04:26:04;;;;;;;;;8.25;8.25;;;;;20.43;35.09;101097.78;5079694;27;45345;-53
2022/04/26 04:28:31;;;;;;;;;12.00;8.75;;;;;20.41;34.82;101094.38;5078455;27;45282;-56
2022/04/26 04:30:56;;;;;;;;;7.75;7.75;;;;;20.42;35.44;101102.19;5078262;27;45329;-53
2022/04/26 04:33:21;;;;;;;;;12.67;10.00;;;;;20.42;34.87;101102.19;5077692;27;52251;-53
2022/04/26 04:35:46;;;;;;;;;8.67;8.33;;;;;20.43;34.82;101113.59;5082059;28;53485;-49
2022/04/26 04:38:12;;;;;;;;;10.33;9.67;;;;;20.41;34.91;101111.03;5076636;28;56756;-51
2022/04/26 04:40:37;;;;;;;;;9.00;8.50;;;;;20.44;35.32;101123.19;5078804;27;45869;-52
2022/04/26 04:43:02;;;;;;;;;10.25;8.50;;;;;20.43;35.00;101119.69;5082786;27;56624;-57
2022/04/26 04:45:28;;;;;;;;;9.00;8.25;;;;;20.43;35.23;101118.84;5078883;27;45260;-52
2022/04/26 04:47:53;;;;;;;;;11.00;9.75;;;;;20.43;35.42;101122.34;5078589;27;45176;-51
2022/04/26 04:50:18;;;;;;;;;10.00;9.75;;;;;20.42;35.40;101123.25;5078934;27;45286;-54
2022/04/26 04:52:44;;;;;;;;;13.75;11.00;;;;;20.42;35.03;101123.25;5085903;27;45912;-54
2022/04/26 04:55:09;;;;;;;;;10.00;8.50;;;;;20.43;34.87;101126.75;5080050;27;45358;-53
2022/04/26 04:57:34;;;;;;;;;9.75;8.00;;;;;20.42;34.96;101128.53;5083856;28;45891;-53
2022/04/26 05:00:00;;;;;;;;;13.00;10.33;;;;;20.42;35.51;101140.84;5090113;28;47374;-52
2022/04/26 05:02:26;;;;;;;;;10.00;9.00;;;;;20.42;34.95;101141.69;5082349;27;46235;-54
2022/04/26 05:04:51;;;;;;;;;9.50;9.50;;;;;20.43;35.46;101139.91;5086063;27;45691;-54
2022/04/26 05:07:16;;;;;;;;;9.00;9.00;;;;;20.43;35.13;101139.91;5085131;28;45786;-52
2022/04/26 05:09:41;;;;;;;;;8.75;8.75;;;;;20.43;35.02;101139.91;5090881;27;45863;-52
2022/04/26 05:12:07;;;;;;;;;12.00;10.25;;;;;20.43;35.22;101139.91;5086019;27;46091;-53
2022/04/26 05:14:33;;;;;;;;;16.00;10.75;;;;;20.43;35.21;101153.91;5086040;27;45407;-54
2022/04/26 05:16:58;;;;;;;;;10.50;8.25;;;;;20.42;35.28;101152.22;5102253;27;45404;-58
2022/04/26 05:19:23;;;;;;;;;11.00;9.33;;;;;20.43;35.06;101161.81;5081707;28;52051;-49
2022/04/26 05:21:49;;;;;;;;;10.00;10.00;;;;;20.42;35.25;101160.13;5079081;27;52982;-52
2022/04/26 05:26:58;;;;;;;;;9.25;9.25;;;;;20.42;35.33;101164.53;5083139;28;45392;-53
2022/04/26 05:29:23;;;;;;;;;9.25;9.25;;;;;20.42;35.51;101164.53;5078484;27;45393;-54
2022/04/26 05:31:49;;;;;;;;;9.00;9.00;;;;;20.43;35.64;101171.50;5078489;28;45953;-50
2022/04/26 05:34:14;;;;;;;;;9.50;9.50;;;;;20.38;35.25;101164.69;5094136;27;45586;-55
2022/04/26 05:36:40;;;;;;;;;12.50;9.50;;;;;20.42;35.23;101177.69;5078889;27;45455;-56
2022/04/26 05:39:05;;;;;;;;;11.50;11.50;;;;;20.43;35.17;101176.78;5092305;27;45720;-58
2022/04/26 05:41:30;;;;;;;;;11.50;8.50;;;;;20.43;35.03;101182.03;5100691;27;45942;-53
2022/04/26 05:43:56;;;;;;;;;8.50;8.50;;;;;20.40;35.46;101177.75;5095902;28;45322;-52
2022/04/26 05:46:21;;;;;;;;;10.50;9.00;;;;;20.43;35.41;101193.41;5079049;28;51590;-54
2022/04/26 05:48:46;;;;;;;;;9.50;9.50;;;;;20.44;35.76;101196.91;5079675;27;46195;-51
2022/04/26 05:51:12;;;;;;;;;11.25;10.00;;;;;20.44;35.77;101186.38;5081524;27;46952;-54
2022/04/26 05:53:37;;;;;;;;;10.75;10.75;;;;;20.45;35.58;101198.63;5081156;27;45221;-54
2022/04/26 05:56:05;;;;;;;;;14.00;13.50;;;;;20.45;35.67;101202.09;5081245;27;45425;-53
2022/04/26 05:58:31;;;;;;;;;12.25;12.25;;;;;20.45;35.49;101203.88;5081135;27;45333;-57
2022/04/26 06:00:56;;;;;;;;;13.50;11.00;;;;;20.45;35.67;101196.00;5081179;27;46126;-55
2022/04/26 06:03:21;;;;;;;;;8.67;7.33;;;;;20.46;35.40;101200.31;5080663;27;55794;-55
2022/04/26 06:05:47;;;;;;;;;13.00;11.33;;;;;20.45;35.45;101199.47;5081020;28;45329;-54
2022/04/26 06:08:12;;;;;;;;;17.00;16.25;;;;;20.45;35.54;101201.25;5082575;27;45464;-59
2022/04/26 06:10:39;;;;;;;;;16.50;14.00;;;;;20.46;35.65;101198.53;5081920;27;45356;-57
2022/04/26 06:13:04;;;;;;;;;17.00;15.75;;;;;20.45;35.87;101201.25;5076447;27;46307;-56
2022/04/26 06:15:30;;;;;;;;;19.25;18.00;;;;;20.45;35.74;101196.00;5079409;28;45403;-54
2022/04/26 06:17:55;;;;;;;;;16.25;14.25;;;;;20.45;35.96;101201.25;5079889;27;45326;-53
2022/04/26 06:20:23;;;;;;;;;16.25;15.75;;;;;20.44;35.93;101192.50;5079261;27;45980;-58
2022/04/26 06:22:48;;;;;;;;;20.75;17.75;;;;;20.43;35.54;101189.94;5079594;27;45240;-59
2022/04/26 06:25:14;;;;;;;;;21.75;17.25;;;;;20.45;35.83;101194.19;5079395;28;45232;-58
2022/04/26 06:27:39;;;;;;;;;18.50;17.25;;;;;20.45;35.92;101201.25;5079760;27;45145;-62
2022/04/26 06:30:05;;;;;;;;;22.50;19.00;;;;;20.47;36.08;101202.00;5079282;27;45286;-57
2022/04/26 06:32:30;;;;;;;;;15.75;15.50;;;;;20.47;36.14;101202.88;5078383;28;45479;-57
2022/04/26 06:34:56;;;;;;;;;13.25;13.25;;;;;20.47;36.05;101208.16;5079369;27;45206;-56
2022/04/26 06:37:23;;;;;;;;;17.75;16.50;;;;;20.49;35.63;101208.06;5079549;27;45577;-58
2022/04/26 06:39:48;;;;;;;;;22.25;20.50;;;;;20.49;35.44;101208.94;5079250;28;45396;-56
2022/04/26 06:42:14;;;;;;;;;18.00;17.75;;;;;20.50;35.66;101217.66;5079257;27;45426;-52
2022/04/26 06:44:39;;;;;;;;;20.00;17.25;;;;;20.49;35.78;101218.59;5079224;27;45422;-55
2022/04/26 06:47:05;;;;;;;;;17.75;15.00;;;;;20.49;35.44;101223.84;5079174;28;45396;-56
2022/04/26 06:49:30;;;;;;;;;14.00;11.75;;;;;20.50;36.04;101222.94;5079084;27;46295;-53
2022/04/26 06:51:55;;;;;;;;;21.50;16.50;;;;;20.44;36.01;101215.34;5079000;27;45419;-55
2022/04/26 06:54:21;;;;;;;;;19.25;18.25;;;;;20.49;35.75;101224.72;5077674;28;45296;-56
2022/04/26 06:56:46;;;;;;;;;17.75;16.50;;;;;20.50;35.70;101225.56;5079386;27;45422;-55
2022/04/26 06:59:13;;;;;;;;;19.50;19.50;;;;;20.49;35.67;101231.75;5078708;27;46150;-53
2022/04/26 07:01:39;;;;;;;;;21.50;18.50;;;;;20.49;35.71;101234.38;5078264;27;45387;-54
2022/04/26 07:04:04;;;;;;;;;16.75;16.75;;;;;20.50;35.77;101228.19;5079285;27;45367;-55
2022/04/26 07:06:29;;;;;;;;;21.00;18.25;;;;;20.49;35.83;101229.13;5079276;27;45559;-55
2022/04/26 07:08:56;;;;;;;;;18.25;16.25;;;;;20.49;35.50;101229.13;5077216;27;46087;-52
2022/04/26 07:11:21;;;;;;;;;18.50;15.75;;;;;20.50;35.92;101241.34;5074835;27;45343;-58
2022/04/26 07:13:47;;;;;;;;;20.25;17.75;;;;;20.48;35.58;101232.69;5060971;28;45382;-58
2022/04/26 07:16:12;;;;;;;;;25.25;19.25;;;;;20.52;35.69;101242.16;5058402;28;45549;-51
2022/04/26 07:18:38;;;;;;;;;21.50;20.00;;;;;20.51;35.77;101245.69;5058092;28;46126;-54
2022/04/26 07:21:03;;;;;;;;;24.33;20.33;;;;;20.51;36.07;101248.34;5058179;28;54932;-56
2022/04/26 07:23:28;;;;;;;;;27.00;22.00;;;;;20.52;35.75;101247.41;5058350;28;45324;-54
2022/04/26 07:25:55;;;;;;;;;29.25;27.00;;;;;20.50;36.04;101246.63;5058415;28;45346;-50
2022/04/26 07:28:21;;;;;;;;;29.00;24.50;;;;;20.49;35.66;101244.91;5057967;28;46272;-50
2022/04/26 07:30:46;;;;;;;;;30.25;25.50;;;;;20.48;36.28;101251.09;5057996;28;45333;-51
2022/04/26 07:35:56;;;;;;;;;24.50;23.25;;;;;20.48;36.25;101256.38;5058210;28;45767;-54
2022/04/26 07:38:22;;;;;;;;;26.25;23.25;;;;;20.44;36.50;101252.22;5057963;28;46277;-51
2022/04/26 07:40:47;;;;;;;;;27.00;23.75;;;;;20.46;36.85;101255.59;5057819;28;45168;-53
2022/04/26 07:43:13;;;;;;;;;24.50;21.75;;;;;20.46;36.80;101258.22;5057979;28;45176;-53
2022/04/26 07:45:40;;;;;;;;;19.00;18.50;;;;;20.47;37.13;101262.56;5056750;28;45360;-52
2022/04/26 07:48:06;;;;;;;;;30.50;25.00;;;;;20.46;36.95;101258.22;5058117;28;46491;-54
2022/04/26 07:50:33;;;;;;;;;29.50;26.75;;;;;20.46;36.98;101266.13;5057971;28;46065;-50
2022/04/26 07:52:59;;;;;;;;;23.50;22.75;;;;;20.45;36.94;101274.97;5058004;28;45284;-54
2022/04/26 07:55:24;;;;;;;;;27.25;22.75;;;;;20.46;36.48;101281.91;5057950;28;45525;-54
2022/04/26 07:57:50;;;;;;;;;27.25;23.00;;;;;20.45;36.76;101278.44;5056343;28;48208;-53
2022/04/26 08:00:16;;;;;;;;;28.50;25.75;;;;;20.45;37.25;101281.09;5057616;28;45413;-52
2022/04/26 08:02:42;;;;;;;;;28.50;26.25;;;;;20.45;36.53;101288.16;5057718;28;45474;-53
2022/04/26 08:05:07;;;;;;;;;30.25;25.75;;;;;20.41;36.45;101283.94;5057957;28;45541;-53
2022/04/26 08:07:39;;;;;;;;;30.00;27.50;;;;;20.41;37.07;101287.41;5057914;28;45964;-54
2022/04/26 08:10:06;;;;;;;;;27.50;25.75;;;;;20.42;36.96;101296.19;5057593;28;45996;-52
2022/04/26 08:12:31;;;;;;;;;30.00;24.75;;;;;20.42;36.77;101296.19;5056418;28;45245;-55
2022/04/26 08:14:57;;;;;;;;;44.33;36.33;;;;;20.42;36.23;101296.19;5057016;28;45264;-56
2022/04/26 08:17:22;;;;;;;;;47.25;38.25;;;;;20.30;35.93;101290.56;5057214;28;45246;-55
2022/04/26 08:19:47;;;;;;;;;49.25;40.75;;;;;20.18;36.02;101299.88;5057391;28;45334;-55
2022/04/26 08:22:13;;;;;;;;;53.50;40.25;;;;;20.05;35.90;101309.28;5057477;28;45569;-56
2022/04/26 08:27:22;;;;;;;;;52.00;41.25;;;;;19.73;35.87;101304.50;5057095;28;45417;-54
2022/04/26 08:29:48;;;;;;;;;53.00;41.75;;;;;19.61;36.14;101310.31;5056116;28;45951;-55
2022/04/26 08:32:14;;;;;;;;;51.00;40.75;;;;;19.48;36.17;101304.75;5057192;28;45425;-55
2022/04/26 08:34:40;;;;;;;;;51.50;39.25;;;;;19.44;36.39;101309.28;5057280;28;45727;-56
2022/04/26 08:37:05;;;;;;;;;55.50;39.75;;;;;19.36;36.17;101315.78;5057283;28;46620;-55
2022/04/26 08:39:31;;;;;;;;;52.25;40.50;;;;;19.31;36.42;101321.22;5057042;28;45248;-56
2022/04/26 08:42:00;;;;;;;;;55.67;41.67;;;;;19.25;36.61;101326.72;5057080;28;45355;-58
2022/04/26 08:44:27;;;;;;;;;60.00;43.00;;;;;19.19;36.74;101319.97;5057069;28;45354;-58
2022/04/26 08:52:20;;;;;;;;;52.75;39.75;;;;;19.00;36.73;101330.41;5056958;28;45431;-56
2022/04/26 08:54:46;;;;;;;;;49.50;39.75;;;;;18.95;36.44;101333.22;5056745;28;45538;-56
2022/04/26 08:57:13;;;;;;;;;44.33;39.00;;;;;18.91;36.48;101338.59;5055232;28;50963;-56
2022/04/26 08:59:52;;;;;;;;;54.25;41.25;;;;;18.87;36.98;101344.91;5056917;28;45280;-56
2022/04/26 09:02:20;;;;;;;;;52.25;40.25;;;;;18.81;36.71;101340.75;5056940;28;45474;-56
2022/04/26 09:04:49;;;;;;;;;45.75;35.50;;;;;18.77;36.71;101340.03;5057096;28;45540;-56
2022/04/26 09:07:48;;;;;;;;;53.00;42.75;;;;;18.75;36.83;101347.09;5056666;28;46673;-56
2022/04/26 09:10:18;;;;;;;;;52.50;42.00;;;;;18.71;37.10;101350.75;5033568;28;45385;-56
2022/04/26 09:13:04;;;;;;;;;52.75;41.25;;;;;18.69;37.16;101356.09;5056755;28;45430;-56
2022/04/26 09:15:42;;;;;;;;;52.75;40.00;;;;;18.68;36.88;101358.78;5056858;28;45332;-56
2022/04/26 09:18:28;;;;;;;;;51.50;40.75;;;;;18.65;37.21;101356.25;5056819;28;46264;-57
2022/04/26 09:21:05;;;;;;;;;47.25;38.25;;;;;18.63;36.97;101368.59;5056290;28;45456;-56
2022/04/26 09:23:32;;;;;;;;;50.50;37.50;;;;;18.61;37.00;101368.66;5056310;28;45341;-57
2022/04/26 09:26:08;;;;;;;;;54.25;42.50;;;;;18.60;37.00;101368.69;5056662;28;45306;-56
2022/04/26 09:28:36;;;;;;;;;52.00;40.00;;;;;18.57;36.89;101376.72;5056304;28;45274;-56
2022/04/26 09:31:24;;;;;;;;;49.75;39.25;;;;;18.57;37.19;101376.72;5056365;28;45847;-56
2022/04/26 09:33:56;;;;;;;;;50.50;39.75;;;;;18.56;37.26;101378.47;5056571;28;45432;-55
2022/04/26 09:36:24;;;;;;;;;55.25;41.75;;;;;18.55;37.26;101371.50;5056520;28;45507;-56
2022/04/26 09:38:56;;;;;;;;;43.00;38.50;;;;;18.52;37.33;101367.25;5056117;28;45362;-54
2022/04/26 09:41:23;;;;;;;;;51.00;42.75;;;;;18.51;37.34;101376.03;5056307;28;45316;-55
2022/04/26 09:44:08;;;;;;;;;52.25;40.50;;;;;18.50;37.52;101381.34;5056155;28;45353;-56
2022/04/26 09:46:42;;;;;;;;;50.75;39.50;;;;;18.50;37.47;101384.81;5056382;28;45386;-55
2022/04/26 09:49:14;;;;;;;;;55.00;42.00;;;;;18.48;37.33;101381.38;5054575;28;47154;-56
2022/04/26 09:51:40;;;;;;;;;53.00;41.25;;;;;18.48;37.32;101378.75;5056288;28;45189;-57
2022/04/26 09:54:06;;;;;;;;;56.25;44.25;;;;;18.46;37.40;101377.13;5056168;28;45195;-56
2022/04/26 09:56:32;;;;;;;;;52.00;41.25;;;;;18.45;37.55;101381.53;5056265;28;45502;-57
2022/04/26 09:59:00;;;;;;;;;52.75;42.00;;;;;18.44;37.65;101390.31;5055725;28;46167;-56
2022/04/26 10:01:30;;;;;;;;;52.50;42.00;;;;;18.44;37.61;101392.94;5055902;28;45296;-56
2022/04/26 10:04:02;;;;;;;;;54.50;43.50;;;;;18.41;37.54;101393.03;5056084;28;45232;-56
2022/04/26 10:06:36;;;;;;;;;54.75;43.50;;;;;18.39;37.77;101405.34;5055981;28;45235;-56
2022/04/26 10:09:04;;;;;;;;;51.50;42.75;;;;;18.38;37.69;101403.63;5055727;28;46231;-55
2022/04/26 10:11:30;;;;;;;;;53.50;42.50;;;;;18.35;37.86;101396.75;5055645;28;45269;-56
2022/04/26 10:13:56;;;;;;;;;51.25;41.75;;;;;18.32;38.00;101386.34;5055742;28;45255;-55
2022/04/26 10:16:23;;;;;;;;;56.75;43.00;;;;;18.33;38.06;101398.56;5054659;28;45469;-55
2022/04/26 10:18:49;;;;;;;;;53.00;43.00;;;;;18.35;37.93;101403.78;5055604;28;46191;-54
2022/04/26 10:21:38;;;;;;;;;53.75;39.50;;;;;18.35;37.73;101403.78;5055832;28;45424;-54
2022/04/26 10:24:19;;;;;;;;;53.75;42.25;;;;;18.33;37.79;101403.81;5049347;28;45402;-53
2022/04/26 10:26:46;;;;;;;;;53.25;40.00;;;;;18.35;38.05;101414.28;5055890;28;45797;-55
2022/04/26 10:29:17;;;;;;;;;50.75;40.25;;;;;18.34;38.05;101404.69;5055833;28;45428;-53
2022/04/26 10:31:48;;;;;;;;;52.75;41.50;;;;;18.36;37.90;101418.59;5055840;28;45282;-55
2022/04/26 10:34:26;;;;;;;;;51.25;42.25;;;;;18.36;37.96;101405.47;5056042;28;45306;-55
2022/04/26 10:37:20;;;;;;;;;54.25;42.50;;;;;18.36;37.75;101408.97;5057834;28;45489;-54
2022/04/26 10:39:57;;;;;;;;;50.50;39.75;;;;;18.37;37.82;101409.78;5058737;28;45976;-55
2022/04/26 10:42:28;;;;;;;;;50.00;36.75;;;;;18.38;37.55;101420.25;5058826;28;45834;-54
2022/04/26 10:45:06;;;;;;;;;45.75;36.00;;;;;18.38;37.33;101420.25;5058974;28;45326;-55
2022/04/26 10:47:33;;;;;;;;;50.00;37.75;;;;;18.38;37.35;101416.75;5058880;28;45370;-55
2022/04/26 10:49:59;;;;;;;;;46.25;36.25;;;;;18.40;37.27;101412.31;5058599;28;46241;-54
2022/04/26 10:52:35;;;;;;;;;48.25;40.50;;;;;18.39;36.99;101413.22;5058672;28;45380;-54
2022/04/26 10:55:03;;;;;;;;;49.00;36.75;;;;;18.39;37.19;101423.72;5058865;28;45403;-54
2022/04/26 10:57:29;;;;;;;;;53.25;39.50;;;;;18.38;37.19;101417.63;5059097;28;45463;-53
2022/04/26 11:00:01;;;;;;;;;50.75;39.25;;;;;18.39;36.97;101407.97;5058488;28;46099;-53
2022/04/26 11:02:29;;;;;;;;;59.00;43.75;;;;;18.38;37.26;101408.88;5058629;28;45884;-52
2022/04/26 11:04:57;;;;;;;;;55.25;41.75;;;;;18.37;37.34;101405.41;5058608;28;45331;-52
2022/04/26 11:07:26;;;;;;;;;63.25;46.50;;;;;18.38;37.39;101409.75;5057539;28;45362;-54
2022/04/26 11:09:56;;;;;;;;;53.50;42.50;;;;;18.39;37.19;101407.97;5058248;28;45358;-55
2022/04/26 11:12:27;;;;;;;;;49.25;38.50;;;;;18.39;37.11;101400.97;5058572;28;45687;-54
2022/04/26 11:14:58;;;;;;;;;53.75;42.00;;;;;18.42;37.35;101407.00;5058376;28;45337;-55
2022/04/26 11:17:25;;;;;;;;;50.25;37.00;;;;;18.40;37.19;101404.44;5058542;28;45341;-53
2022/04/26 11:19:53;;;;;;;;;48.75;39.25;;;;;18.42;37.29;101401.75;5057005;28;46410;-52
2022/04/26 11:22:20;;;;;;;;;48.00;38.25;;;;;18.44;37.34;101395.56;5058091;28;45272;-53
2022/04/26 11:30:24;;;;;;;;;52.50;40.75;;;;;18.50;37.47;101402.34;5058006;28;45433;-52
2022/04/26 11:32:49;;;;;;;;;46.50;37.50;;;;;18.47;37.58;101395.41;5058061;28;45342;-54
2022/04/26 11:35:16;;;;;;;;;47.25;36.75;;;;;18.51;37.10;101401.44;5058573;28;45382;-53
2022/04/26 11:37:45;;;;;;;;;48.75;38.75;;;;;18.52;37.13;101409.25;5058369;28;45566;-54
2022/04/26 11:40:12;;;;;;;;;45.50;34.50;;;;;18.52;37.14;101406.63;5057911;28;46082;-53
2022/04/26 11:42:37;;;;;;;;;49.25;36.00;;;;;18.53;37.44;101400.44;5056580;28;45836;-52
2022/04/26 11:45:05;;;;;;;;;45.50;36.00;;;;;18.54;37.22;101402.16;5058022;28;45347;-53
2022/04/26 11:47:44;;;;;;;;;45.75;36.00;;;;;18.58;37.46;101404.66;5039983;28;45568;-53
2022/04/26 11:50:10;;;;;;;;;42.00;34.00;;;;;18.60;37.13;101408.09;5057604;28;46073;-50
2022/04/26 11:52:35;;;;;;;;;43.50;33.75;;;;;18.62;37.46;101408.88;5056498;28;45497;-53
2022/04/26 11:55:00;;;;;;;;;46.00;35.67;;;;;18.61;37.23;101408.03;5057574;28;47628;-52
2022/04/26 11:57:26;;;;;;;;;43.00;35.50;;;;;18.62;37.15;101415.00;5057913;28;45298;-54
2022/04/26 11:59:52;;;;;;;;;42.75;35.75;;;;;18.62;37.23;101408.88;5056217;28;46085;-52
2022/04/26 12:02:18;;;;;;;;;48.75;34.00;;;;;18.61;37.44;101412.41;5057903;28;45260;-53
2022/04/26 12:04:43;;;;;;;;;40.75;31.50;;;;;18.60;37.17;101415.97;5057643;28;45291;-54
2022/04/26 12:07:09;;;;;;;;;38.75;33.75;;;;;18.61;37.19;101409.78;5057756;28;45453;-55
2022/04/26 12:09:34;;;;;;;;;36.25;31.00;;;;;18.61;37.26;101409.78;5057418;28;46348;-55
2022/04/26 12:12:02;;;;;;;;;42.50;35.50;;;;;18.59;37.35;101409.00;5057591;28;45362;-55
2022/04/26 12:14:27;;;;;;;;;42.00;34.50;;;;;18.59;37.28;101409.00;5057428;28;45367;-54
2022/04/26 12:16:56;;;;;;;;;36.00;33.50;;;;;18.58;37.37;101416.03;5057770;28;45378;-55
2022/04/26 12:19:35;;;;;;;;;35.75;30.50;;;;;18.58;37.22;101409.91;5057189;28;46589;-55
2022/04/26 12:22:01;;;;;;;;;42.75;34.00;;;;;18.54;37.27;101415.28;5057339;28;45322;-54
2022/04/26 12:24:29;;;;;;;;;37.75;31.75;;;;;18.56;37.31;101420.47;5057191;28;45275;-54
2022/04/26 12:27:04;;;;;;;;;34.75;31.50;;;;;18.54;36.98;101406.53;5057441;28;45363;-54
2022/04/26 12:29:39;;;;;;;;;35.75;32.25;;;;;18.51;37.06;101409.31;5057014;28;47045;-54
2022/04/26 12:32:06;;;;;;;;;36.75;29.50;;;;;18.54;37.17;101402.16;5057253;28;45937;-55
2022/04/26 12:34:31;;;;;;;;;37.25;29.75;;;;;18.57;37.32;101413.47;5056057;28;45402;-55
2022/04/26 12:37:00;;;;;;;;;38.25;32.50;;;;;18.60;37.43;101413.34;5057449;28;45464;-55
2022/04/26 12:39:43;;;;;;;;;39.25;32.25;;;;;18.62;37.27;101403.63;5056659;28;45509;-54
2022/04/26 12:42:15;;;;;;;;;43.00;32.50;;;;;18.63;36.94;101405.34;5057136;28;45209;-53
2022/04/26 12:44:52;;;;;;;;;40.25;33.50;;;;;18.64;37.00;101407.91;5057115;28;45370;-55
2022/04/26 12:50:29;;;;;;;;;40.25;32.50;;;;;18.63;37.22;101395.69;5056831;28;45520;-55
2022/04/26 12:52:56;;;;;;;;;38.50;31.75;;;;;18.66;37.19;101402.63;5056809;28;45345;-55
2022/04/26 12:55:32;;;;;;;;;36.75;30.25;;;;;18.68;37.29;101406.88;5057320;28;45458;-55
2022/04/26 12:58:14;;;;;;;;;36.00;32.00;;;;;18.68;37.14;101403.41;5055775;28;45181;-61
2022/04/26 13:00:46;;;;;;;;;33.50;31.75;;;;;18.69;36.99;101399.84;5056621;28;46218;-56
2022/04/26 13:03:14;;;;;;;;;32.50;26.00;;;;;18.72;36.84;101393.66;5056570;28;45405;-57
2022/04/26 13:05:48;;;;;;;;;33.50;28.00;;;;;18.72;36.83;101394.47;5056812;28;45489;-55
2022/04/26 13:08:15;;;;;;;;;31.00;27.50;;;;;18.72;36.83;101405.00;5056881;28;45311;-56
2022/04/26 13:10:41;;;;;;;;;29.50;27.25;;;;;18.74;36.82;101387.41;5056322;28;45471;-56
2022/04/26 13:13:08;;;;;;;;;34.50;30.75;;;;;18.75;36.74;101383.88;5056290;28;45318;-53
2022/04/26 13:15:34;;;;;;;;;33.00;28.75;;;;;18.77;36.66;101382.03;5056615;28;45228;-57
2022/04/26 13:17:59;;;;;;;;;30.25;27.00;;;;;18.78;36.64;101389.00;5056816;28;45613;-56
2022/04/26 13:20:26;;;;;;;;;27.25;25.25;;;;;18.78;36.64;101378.50;5056300;28;46121;-56
2022/04/26 13:22:52;;;;;;;;;26.75;24.50;;;;;18.81;36.64;101378.38;5056661;28;45775;-56
2022/04/26 13:25:18;;;;;;;;;29.50;26.25;;;;;18.80;36.46;101381.06;5056366;28;45461;-55
2022/04/26 13:27:46;;;;;;;;;26.75;24.25;;;;;18.81;36.32;101380.16;5056641;28;46032;-56
2022/04/26 13:30:12;;;;;;;;;29.75;26.25;;;;;18.82;36.31;101380.09;5054810;28;47059;-57
2022/04/26 13:32:37;;;;;;;;;28.50;24.00;;;;;18.84;36.58;101377.41;5055878;28;45462;-56
2022/04/26 13:35:05;;;;;;;;;32.50;29.00;;;;;18.87;36.60;101381.69;5056376;28;45317;-55
2022/04/26 13:37:31;;;;;;;;;30.50;26.50;;;;;18.87;36.42;101371.19;5056544;28;45507;-55
2022/04/26 13:39:58;;;;;;;;;28.25;24.00;;;;;18.88;36.31;101373.72;5055966;28;45421;-57
2022/04/26 13:42:25;;;;;;;;;24.75;23.25;;;;;18.90;36.50;101371.06;5056532;28;45516;-56
2022/04/26 13:44:52;;;;;;;;;27.75;25.75;;;;;18.89;36.49;101378.06;5056696;28;45404;-55
2022/04/26 13:47:18;;;;;;;;;25.25;20.00;;;;;18.91;36.30;101367.50;5055125;28;45526;-55
2022/04/26 13:49:43;;;;;;;;;20.50;20.50;;;;;18.91;36.27;101364.88;5055899;28;46213;-56
2022/04/26 13:52:09;;;;;;;;;29.00;26.25;;;;;18.92;36.48;101363.94;5056168;28;45239;-55
2022/04/26 13:54:35;;;;;;;;;23.75;19.00;;;;;18.93;36.22;101355.16;5056198;28;45311;-55
2022/04/26 13:57:01;;;;;;;;;22.50;20.75;;;;;18.93;35.99;101361.31;5056318;28;45283;-56
2022/04/26 13:59:27;;;;;;;;;22.00;20.00;;;;;18.94;36.39;101367.41;5055909;28;45395;-56
2022/04/26 14:01:54;;;;;;;;;25.25;19.25;;;;;18.95;36.03;101361.25;5056151;28;45366;-55
2022/04/26 14:04:19;;;;;;;;;22.00;21.50;;;;;18.94;36.35;101351.66;5055961;28;45368;-54
2022/04/26 14:06:46;;;;;;;;;26.50;22.00;;;;;18.94;36.26;101352.53;5056145;28;45728;-55
2022/04/26 14:09:11;;;;;;;;;18.00;17.25;;;;;18.95;36.32;101348.97;5055615;28;46319;-54
2022/04/26 14:11:37;;;;;;;;;21.00;19.50;;;;;18.96;36.30;101355.06;5057598;28;45447;-56
2022/04/26 14:22:14;;;;;;;;;22.50;20.00;;;;;18.98;36.06;101338.31;5059397;28;45369;-55
2022/04/26 14:24:40;;;;;;;;;22.00;22.00;;;;;18.97;36.08;101335.78;5059381;28;45281;-54
2022/04/26 14:27:06;;;;;;;;;22.75;19.50;;;;;18.97;35.95;101330.53;5059425;28;45496;-54
2022/04/26 14:29:32;;;;;;;;;21.00;20.50;;;;;18.93;36.37;101340.31;5059035;28;46171;-53
2022/04/26 14:31:57;;;;;;;;;22.00;18.75;;;;;18.96;36.16;101339.31;5059107;28;45327;-56
2022/04/26 14:34:23;;;;;;;;;18.50;18.50;;;;;18.97;36.10;101336.63;5059464;28;45346;-54
2022/04/26 14:36:49;;;;;;;;;18.00;16.25;;;;;19.02;36.17;101348.72;5059472;28;45322;-55
2022/04/26 14:39:15;;;;;;;;;18.75;17.25;;;;;18.99;36.06;101344.44;5058925;28;46230;-54
2022/04/26 14:41:44;;;;;;;;;15.50;14.25;;;;;19.04;36.00;101342.47;5057813;28;45866;-55
2022/04/26 14:44:09;;;;;;;;;16.75;16.75;;;;;19.06;36.27;101345.06;5059137;28;45414;-54
2022/04/26 14:46:35;;;;;;;;;23.25;21.00;;;;;19.07;36.20;101341.50;5059082;28;45520;-53
2022/04/26 14:49:01;;;;;;;;;21.75;17.75;;;;;19.08;36.47;101344.06;5058786;28;45438;-57
2022/04/26 14:51:26;;;;;;;;;16.00;15.50;;;;;19.15;36.33;101345.50;5059062;28;45251;-56
2022/04/26 14:53:52;;;;;;;;;21.25;19.50;;;;;19.18;36.37;101339.31;5058968;28;45271;-56
2022/04/26 14:56:17;;;;;;;;;14.25;13.50;;;;;19.20;36.07;101341.84;5059072;28;45564;-55
2022/04/26 14:58:43;;;;;;;;;19.00;18.00;;;;;19.21;35.53;101346.19;5058653;28;46124;-55
2022/04/26 15:01:08;;;;;;;;;16.75;15.50;;;;;19.22;36.03;101345.28;5058710;28;45480;-56
2022/04/26 15:03:35;;;;;;;;;20.25;17.25;;;;;19.23;35.61;101341.75;5058818;28;45272;-58
2022/04/26 15:06:01;;;;;;;;;16.50;15.25;;;;;19.20;35.66;101341.84;5058863;28;45360;-57
2022/04/26 15:11:10;;;;;;;;;11.50;11.50;;;;;19.21;35.26;101344.41;5058497;28;45953;-60
2022/04/26 15:16:38;;;;;;;;;12.50;10.00;;;;;19.25;35.60;101340.75;5058590;28;45378;-61
2022/04/26 15:19:05;;;;;;;;;8.00;8.00;;;;;19.27;35.43;101343.28;5058542;28;46720;-61
2022/04/26 15:21:30;;;;;;;;;10.25;10.25;;;;;19.30;35.60;101341.38;5057811;28;45234;-60
2022/04/26 15:23:56;;;;;;;;;11.25;11.25;;;;;19.34;35.51;101344.78;5058935;28;45347;-61
2022/04/26 15:26:23;;;;;;;;;11.75;10.00;;;;;19.35;35.44;101341.19;5058562;28;45177;-62
2022/04/26 15:28:48;;;;;;;;;11.50;10.00;;;;;19.38;35.74;101338.44;5058224;28;46293;-60